createdAt,value
2022-11-12T00:00:35.657Z,102329.09
2022-11-12T00:03:01.872Z,102325.06
2022-11-12T00:05:28.086Z,102324.50
2022-11-12T00:07:54.294Z,102330.53
2022-11-12T00:10:20.494Z,102333.34
2022-11-12T00:12:46.701Z,102328.72
2022-11-12T00:15:13.012Z,102331.31
2022-11-12T00:17:39.228Z,102336.16
2022-11-12T00:20:05.729Z,102336.56
2022-11-12T00:22:31.980Z,102335.53
2022-11-12T00:24:58.189Z,102330.72
2022-11-12T00:27:24.399Z,102340.53
2022-11-12T00:29:50.596Z,102334.94
2022-11-12T00:32:16.807Z,102331.50
2022-11-12T00:34:43.030Z,102334.13
2022-11-12T00:37:09.237Z,102352.19
2022-11-12T00:39:35.432Z,102344.78
2022-11-12T00:42:01.701Z,102348.00
2022-11-12T00:44:27.913Z,102340.34
2022-11-12T00:46:54.145Z,102356.84
2022-11-12T00:49:20.344Z,102370.72
2022-11-12T00:51:46.556Z,102369.72
2022-11-12T00:54:12.758Z,102356.22
2022-11-12T00:56:39.074Z,102345.16
2022-11-12T00:59:05.294Z,102345.38
2022-11-12T01:01:31.580Z,102356.03
2022-11-12T01:03:58.089Z,102347.59
2022-11-12T01:06:24.357Z,102356.03
2022-11-12T01:08:50.818Z,102369.91
2022-11-12T01:11:18.113Z,102355.59
2022-11-12T01:13:44.673Z,102352.63
2022-11-12T01:16:17.880Z,102351.59
2022-11-12T01:18:44.110Z,102366.47
2022-11-12T01:21:10.334Z,102370.91
2022-11-12T01:23:37.133Z,102380.75
2022-11-12T01:26:03.968Z,102365.31
2022-11-12T01:28:30.175Z,102355.25
2022-11-12T01:30:56.486Z,102351.00
2022-11-12T01:33:22.695Z,102355.41
2022-11-12T01:35:48.895Z,102359.66
2022-11-12T01:38:15.104Z,102346.75
2022-11-12T01:40:41.302Z,102351.00
2022-11-12T01:43:13.719Z,102346.97
2022-11-12T01:45:40.020Z,102345.16
2022-11-12T01:48:06.245Z,102344.16
2022-11-12T01:50:32.457Z,102334.50
2022-11-12T01:52:59.934Z,102331.72
2022-11-12T01:55:28.083Z,102328.47
2022-11-12T01:57:55.805Z,102333.69
2022-11-12T02:00:22.013Z,102343.56
2022-11-12T02:02:51.850Z,102351.41
2022-11-12T02:05:18.051Z,102341.16
2022-11-12T02:07:44.264Z,102353.22
2022-11-12T02:10:10.482Z,102351.00
2022-11-12T02:12:36.687Z,102347.81
2022-11-12T02:15:03.413Z,102338.13
2022-11-12T02:17:29.634Z,102328.66
2022-11-12T02:19:58.252Z,102326.06
2022-11-12T02:22:24.480Z,102335.94
2022-11-12T02:24:50.689Z,102337.53
2022-11-12T02:27:16.911Z,102344.16
2022-11-12T02:29:43.113Z,102347.19
2022-11-12T02:32:09.357Z,102339.56
2022-11-12T02:34:35.561Z,102361.03
2022-11-12T02:37:01.767Z,102351.81
2022-11-12T02:39:27.983Z,102343.75
2022-11-12T02:41:54.204Z,102352.81
2022-11-12T02:44:20.416Z,102360.00
2022-11-12T02:46:46.644Z,102366.22
2022-11-12T02:49:12.848Z,102362.63
2022-11-12T02:51:39.066Z,102351.31
2022-11-12T02:54:05.284Z,102354.91
2022-11-12T02:56:31.524Z,102373.78
2022-11-12T02:58:57.728Z,102377.75
2022-11-12T03:01:23.960Z,102395.00
2022-11-12T03:03:50.187Z,102393.34
2022-11-12T03:06:16.398Z,102394.13
2022-11-12T03:08:42.612Z,102392.47
2022-11-12T03:11:09.887Z,102389.84
2022-11-12T03:13:36.088Z,102395.00
2022-11-12T03:16:02.286Z,102393.75
2022-11-12T03:18:28.869Z,102400.50
2022-11-12T03:20:55.321Z,102407.50
2022-11-12T03:23:21.545Z,102403.91
2022-11-12T03:25:47.757Z,102411.72
2022-11-12T03:28:14.453Z,102411.72
2022-11-12T03:30:41.126Z,102414.59
2022-11-12T03:33:07.665Z,102392.94
2022-11-12T03:35:33.901Z,102395.72
2022-11-12T03:38:00.178Z,102390.50
2022-11-12T03:40:26.382Z,102388.94
2022-11-12T03:42:52.660Z,102388.53
2022-11-12T03:45:19.218Z,102386.72
2022-11-12T03:47:45.995Z,102374.50
2022-11-12T03:50:12.495Z,102366.47
2022-11-12T03:52:38.700Z,102374.69
2022-11-12T03:55:05.498Z,102366.47
2022-11-12T03:57:31.714Z,102376.31
2022-11-12T03:59:57.933Z,102366.50
2022-11-12T04:02:24.138Z,102354.44
2022-11-12T04:04:50.377Z,102359.66
2022-11-12T04:07:16.595Z,102355.44
2022-11-12T04:09:42.813Z,102343.19
2022-11-12T04:12:09.019Z,102351.00
2022-11-12T04:14:35.229Z,102343.59
2022-11-12T04:17:01.434Z,102343.59
2022-11-12T04:19:27.656Z,102337.19
2022-11-12T04:21:55.077Z,102337.97
2022-11-12T04:24:22.602Z,102346.44
2022-11-12T04:26:48.808Z,102343.06
2022-11-12T04:29:15.014Z,102343.06
2022-11-12T04:31:41.214Z,102334.03
2022-11-12T04:34:07.414Z,102324.41
2022-11-12T04:36:33.621Z,102337.22
2022-11-12T04:38:59.846Z,102330.22
2022-11-12T04:41:26.059Z,102334.50
2022-11-12T04:43:52.280Z,102329.88
2022-11-12T04:46:18.486Z,102327.69
2022-11-12T04:48:44.708Z,102322.66
2022-11-12T04:51:10.912Z,102328.25
2022-11-12T04:53:37.103Z,102330.91
2022-11-12T04:56:03.366Z,102329.88
2022-11-12T04:58:29.865Z,102333.47
2022-11-12T05:00:56.359Z,102322.25
2022-11-12T05:03:22.614Z,102312.22
2022-11-12T05:05:48.833Z,102323.47
2022-11-12T05:08:15.033Z,102340.91
2022-11-12T05:10:41.314Z,102350.16
2022-11-12T05:13:07.524Z,102338.69
2022-11-12T05:15:33.731Z,102347.94
2022-11-12T05:17:59.944Z,102333.69
2022-11-12T05:20:26.168Z,102339.72
2022-11-12T05:23:05.634Z,102335.91
2022-11-12T05:25:32.966Z,102340.31
2022-11-12T05:27:59.398Z,102336.31
2022-11-12T05:30:25.628Z,102336.31
2022-11-12T05:32:51.837Z,102337.94
2022-11-12T05:35:18.054Z,102353.78
2022-11-12T05:37:44.267Z,102354.34
2022-11-12T05:40:10.585Z,102345.75
2022-11-12T05:42:36.799Z,102339.91
2022-11-12T05:45:03.076Z,102341.53
2022-11-12T05:47:29.285Z,102351.50
2022-11-12T05:49:55.484Z,102353.97
2022-11-12T05:52:21.707Z,102348.28
2022-11-12T05:54:47.900Z,102352.69
2022-11-12T05:57:14.108Z,102348.69
2022-11-12T05:59:40.304Z,102353.13
2022-11-12T06:02:06.547Z,102372.56
2022-11-12T06:04:32.785Z,102373.19
2022-11-12T06:06:59.059Z,102364.75
2022-11-12T06:09:25.273Z,102373.19
2022-11-12T06:11:51.493Z,102382.63
2022-11-12T06:14:17.743Z,102374.78
2022-11-12T06:16:43.958Z,102378.00
2022-11-12T06:19:10.169Z,102381.22
2022-11-12T06:21:36.389Z,102385.63
2022-11-12T06:24:02.909Z,102380.41
2022-11-12T06:26:29.177Z,102378.22
2022-11-12T06:28:55.387Z,102387.25
2022-11-12T06:31:21.762Z,102375.66
2022-11-12T06:33:47.971Z,102372.03
2022-11-12T06:36:15.215Z,102378.88
2022-11-12T06:38:41.425Z,102376.03
2022-11-12T06:41:07.920Z,102376.84
2022-11-12T06:43:34.179Z,102371.44
2022-11-12T06:46:00.937Z,102370.44
2022-11-12T06:48:27.849Z,102374.66
2022-11-12T06:50:54.365Z,102397.34
2022-11-12T06:53:20.570Z,102389.31
2022-11-12T06:55:46.822Z,102372.84
2022-11-12T06:58:13.044Z,102375.88
2022-11-12T07:00:39.272Z,102382.53
2022-11-12T07:03:08.810Z,102378.94
2022-11-12T07:05:36.256Z,102383.56
2022-11-12T07:08:02.483Z,102374.94
2022-11-12T07:10:28.689Z,102381.59
2022-11-12T07:12:54.914Z,102385.41
2022-11-12T07:15:21.116Z,102388.03
2022-11-12T07:17:47.339Z,102386.63
2022-11-12T07:20:13.570Z,102397.47
2022-11-12T07:22:39.776Z,102398.94
2022-11-12T07:25:06.083Z,102395.09
2022-11-12T07:27:32.350Z,102389.28
2022-11-12T07:29:58.562Z,102398.56
2022-11-12T07:32:24.784Z,102413.19
2022-11-12T07:34:50.989Z,102406.16
2022-11-12T07:37:17.209Z,102403.78
2022-11-12T07:39:43.406Z,102414.00
2022-11-12T07:42:09.625Z,102407.63
2022-11-12T07:44:35.841Z,102399.59
2022-11-12T07:47:02.046Z,102400.59
2022-11-12T07:49:28.255Z,102415.06
2022-11-12T07:51:54.470Z,102421.50
2022-11-12T07:54:20.674Z,102421.31
2022-11-12T07:56:46.898Z,102424.97
2022-11-12T07:59:13.096Z,102426.16
2022-11-12T08:01:39.855Z,102421.38
2022-11-12T08:04:06.842Z,102431.22
2022-11-12T08:06:33.064Z,102440.50
2022-11-12T08:09:00.181Z,102427.81
2022-11-12T08:11:26.396Z,102440.50
2022-11-12T08:13:52.601Z,102452.56
2022-11-12T08:16:19.039Z,102429.03
2022-11-12T08:18:45.263Z,102422.63
2022-11-12T08:21:12.070Z,102434.47
2022-11-12T08:23:38.268Z,102424.78
2022-11-12T08:26:05.105Z,102431.03
2022-11-12T08:28:31.650Z,102427.41
2022-11-12T08:30:57.915Z,102435.28
2022-11-12T08:33:24.138Z,102436.69
2022-11-12T08:35:50.332Z,102436.69
2022-11-12T08:38:16.546Z,102437.09
2022-11-12T08:40:42.747Z,102460.19
2022-11-12T08:43:09.353Z,102456.19
2022-11-12T08:45:36.313Z,102453.75
2022-11-12T08:48:03.209Z,102458.78
2022-11-12T08:50:29.529Z,102464.22
2022-11-12T08:52:59.592Z,102466.19
2022-11-12T08:55:25.796Z,102480.25
2022-11-12T08:57:52.002Z,102487.75
2022-11-12T09:00:18.214Z,102500.41
2022-11-12T09:02:44.479Z,102506.84
2022-11-12T09:05:10.715Z,102516.50
2022-11-12T09:07:49.457Z,102506.03
2022-11-12T09:10:16.774Z,102505.47
2022-11-12T09:12:42.982Z,102509.72
2022-11-12T09:15:36.240Z,102493.84
2022-11-12T09:17:58.754Z,102483.56
2022-11-12T09:20:25.290Z,102489.41
2022-11-12T09:22:51.755Z,102476.53
2022-11-12T09:25:18.361Z,102487.78
2022-11-12T09:27:48.517Z,102477.53
2022-11-12T09:30:15.077Z,102482.38
2022-11-12T09:32:41.298Z,102478.75
2022-11-12T09:35:07.616Z,102488.22
2022-11-12T09:37:33.846Z,102485.00
2022-11-12T09:40:00.050Z,102484.78
2022-11-12T09:42:26.264Z,102483.97
2022-11-12T09:44:55.758Z,102504.31
2022-11-12T09:47:48.250Z,102503.72
2022-11-12T09:50:33.872Z,102499.28
2022-11-12T09:53:13.832Z,102497.00
2022-11-12T09:55:40.911Z,102477.63
2022-11-12T09:58:11.064Z,102475.75
2022-11-12T10:00:41.134Z,102455.59
2022-11-12T10:03:14.736Z,102430.13
2022-11-12T10:05:47.040Z,102407.69
2022-11-12T10:08:15.992Z,102393.47
2022-11-12T10:10:48.714Z,102378.09
2022-11-12T10:13:33.186Z,102358.75
2022-11-12T10:16:05.421Z,102322.91
2022-11-12T10:18:50.377Z,102326.59
2022-11-12T10:21:35.630Z,102353.16
2022-11-12T10:24:01.834Z,102309.22
2022-11-12T10:26:28.177Z,102300.72
2022-11-12T10:28:54.360Z,102330.31
2022-11-12T10:31:20.789Z,102341.28
2022-11-12T10:33:47.021Z,102319.75
2022-11-12T10:36:18.480Z,102308.91
2022-11-12T10:38:45.020Z,102319.41
2022-11-12T10:41:17.891Z,102315.38
2022-11-12T10:43:52.682Z,102322.84
2022-11-12T10:46:20.295Z,102316.31
2022-11-12T10:48:53.222Z,102329.03
2022-11-12T10:51:20.089Z,102339.72
2022-11-12T10:53:46.292Z,102354.75
2022-11-12T10:56:24.724Z,102327.44
2022-11-12T10:59:09.846Z,102322.31
2022-11-12T11:01:36.681Z,102324.47
2022-11-12T11:04:04.754Z,102287.72
2022-11-12T11:06:30.981Z,102215.72
2022-11-12T11:09:14.479Z,102193.38
2022-11-12T11:11:50.539Z,102204.22
2022-11-12T11:14:22.772Z,102175.69
2022-11-12T11:16:56.529Z,102204.34
2022-11-12T11:19:22.729Z,102248.34
2022-11-12T11:21:48.870Z,102294.28
2022-11-12T11:24:34.848Z,102348.19
2022-11-12T11:27:12.808Z,102342.34
2022-11-12T11:29:55.247Z,102402.53
2022-11-12T11:32:27.498Z,102463.69
2022-11-12T11:35:02.702Z,102470.59
2022-11-12T11:37:29.283Z,102459.09
2022-11-12T11:40:09.799Z,102487.56
2022-11-12T11:42:47.417Z,102502.72
2022-11-12T11:45:18.429Z,102517.91
2022-11-12T11:48:02.579Z,102502.22
2022-11-12T11:50:33.349Z,102530.88
2022-11-12T11:53:01.351Z,102560.16
2022-11-12T11:55:33.343Z,102582.97
2022-11-12T11:58:05.007Z,102605.53
2022-11-12T12:00:43.648Z,102624.50
2022-11-12T12:03:15.173Z,102622.72
2022-11-12T12:05:41.362Z,102607.00
2022-11-12T12:08:26.409Z,102608.63
2022-11-12T12:11:08.031Z,102618.47
2022-11-12T12:13:41.696Z,102617.28
2022-11-12T12:16:26.535Z,102636.63
2022-11-12T12:18:55.869Z,102639.25
2022-11-12T12:21:22.080Z,102639.88
2022-11-12T12:23:48.243Z,102642.47
2022-11-12T12:26:15.998Z,102653.34
2022-11-12T12:28:42.282Z,102633.00
2022-11-12T12:31:11.169Z,102617.47
2022-11-12T12:33:38.153Z,102600.31
2022-11-12T12:36:08.453Z,102590.47
2022-11-12T12:38:51.922Z,102594.31
2022-11-12T12:41:18.072Z,102572.69
2022-11-12T12:43:49.128Z,102553.59
2022-11-12T12:46:15.595Z,102558.63
2022-11-12T12:48:42.284Z,102571.72
2022-11-12T12:51:08.500Z,102574.94
2022-11-12T12:53:35.295Z,102558.00
2022-11-12T12:56:02.280Z,102552.16
2022-11-12T12:58:32.375Z,102543.72
2022-11-12T13:00:59.506Z,102539.25
2022-11-12T13:03:49.012Z,102543.31
2022-11-12T13:06:21.089Z,102553.41
2022-11-12T13:08:48.145Z,102570.13
2022-11-12T13:11:46.036Z,102582.84
2022-11-12T13:14:31.097Z,102588.69
2022-11-12T13:16:58.027Z,102610.03
2022-11-12T13:19:27.740Z,102625.13
2022-11-12T13:22:17.290Z,102635.41
2022-11-12T13:25:01.936Z,102649.91
2022-11-12T13:27:40.309Z,102658.94
2022-11-12T13:30:27.876Z,102659.09
2022-11-12T13:32:57.110Z,102676.00
2022-11-12T13:35:23.331Z,102688.47
2022-11-12T13:37:53.564Z,102683.66
2022-11-12T13:40:19.714Z,102684.84
2022-11-12T13:42:45.975Z,102684.28
2022-11-12T13:45:12.172Z,102680.81
2022-11-12T13:47:38.394Z,102682.00
2022-11-12T13:50:06.344Z,102688.03
2022-11-12T13:52:32.632Z,102681.00
2022-11-12T13:55:02.900Z,102687.59
2022-11-12T13:57:30.165Z,102677.31
2022-11-12T14:00:15.301Z,102669.84
2022-11-12T14:02:41.809Z,102682.91
2022-11-12T14:05:21.961Z,102671.84
2022-11-12T14:07:50.169Z,102674.84
2022-11-12T14:10:25.627Z,102658.66
2022-11-12T14:13:04.591Z,102666.28
2022-11-12T14:15:53.728Z,102679.38
2022-11-12T14:18:23.429Z,102667.31
2022-11-12T14:20:49.712Z,102660.88
2022-11-12T14:23:24.396Z,102656.47
2022-11-12T14:25:54.896Z,102653.66
2022-11-12T14:28:33.776Z,102639.16
2022-11-12T14:31:00.290Z,102623.00
2022-11-12T14:33:26.942Z,102610.69
2022-11-12T14:35:53.729Z,102606.81
2022-11-12T14:38:23.506Z,102626.94
2022-11-12T14:40:49.726Z,102637.81
2022-11-12T14:43:27.375Z,102638.63
2022-11-12T14:45:54.519Z,102635.41
2022-11-12T14:48:20.729Z,102628.56
2022-11-12T14:50:50.782Z,102610.81
2022-11-12T14:53:21.956Z,102605.88
2022-11-12T14:55:51.655Z,102615.34
2022-11-12T14:58:18.037Z,102618.94
2022-11-12T15:00:48.003Z,102617.72
2022-11-12T15:03:24.404Z,102614.88
2022-11-12T15:05:54.606Z,102615.63
2022-11-12T15:08:30.883Z,102614.56
2022-11-12T15:10:57.120Z,102611.34
2022-11-12T15:13:26.702Z,102602.09
2022-11-12T15:15:57.490Z,102605.28
2022-11-12T15:18:24.320Z,102609.56
2022-11-12T15:21:09.444Z,102614.03
2022-11-12T15:23:35.649Z,102614.41
2022-11-12T15:26:01.888Z,102609.78
2022-11-12T15:28:28.096Z,102604.91
2022-11-12T15:31:01.402Z,102606.50
2022-11-12T15:33:27.892Z,102608.56
2022-11-12T15:35:58.111Z,102611.75
2022-11-12T15:38:25.749Z,102582.50
2022-11-12T15:40:57.561Z,102591.09
2022-11-12T15:43:25.310Z,102583.72
2022-11-12T15:45:52.041Z,102599.38
2022-11-12T15:48:18.247Z,102596.22
2022-11-12T15:50:44.525Z,102592.63
2022-11-12T15:53:10.729Z,102583.13
2022-11-12T15:55:38.654Z,102583.03
2022-11-12T15:58:05.271Z,102590.41
2022-11-12T16:00:32.159Z,102592.94
2022-11-12T16:02:59.407Z,102581.34
2022-11-12T16:05:25.787Z,102572.91
2022-11-12T16:07:51.986Z,102559.72
2022-11-12T16:10:18.673Z,102554.13
2022-11-12T16:12:45.013Z,102551.78
2022-11-12T16:15:20.569Z,102549.44
2022-11-12T16:17:48.076Z,102539.50
2022-11-12T16:20:15.061Z,102539.56
2022-11-12T16:22:41.260Z,102534.47
2022-11-12T16:25:07.619Z,102520.97
2022-11-12T16:27:33.861Z,102515.84
2022-11-12T16:30:00.112Z,102516.28
2022-11-12T16:32:26.356Z,102510.44
2022-11-12T16:34:55.801Z,102491.66
2022-11-12T16:37:26.317Z,102502.13
2022-11-12T16:39:52.527Z,102513.84
2022-11-12T16:42:18.729Z,102518.91
2022-11-12T16:44:44.942Z,102516.88
2022-11-12T16:47:11.144Z,102517.38
2022-11-12T16:49:38.875Z,102504.44
2022-11-12T16:52:05.314Z,102502.00
2022-11-12T16:54:31.531Z,102502.38
2022-11-12T16:56:57.740Z,102490.31
2022-11-12T16:59:23.948Z,102483.56
2022-11-12T17:01:50.146Z,102488.75
2022-11-12T17:04:16.375Z,102485.19
2022-11-12T17:06:42.597Z,102488.75
2022-11-12T17:09:10.050Z,102499.41
2022-11-12T17:11:36.247Z,102467.75
2022-11-12T17:14:03.958Z,102447.47
2022-11-12T17:16:30.233Z,102468.53
2022-11-12T17:18:56.809Z,102476.06
2022-11-12T17:21:23.140Z,102503.75
2022-11-12T17:23:49.388Z,102498.59
2022-11-12T17:26:16.282Z,102508.16
2022-11-12T17:28:42.496Z,102498.94
2022-11-12T17:31:12.471Z,102499.25
2022-11-12T17:33:42.488Z,102453.53
2022-11-12T17:36:09.458Z,102489.59
2022-11-12T17:38:35.737Z,102500.59
2022-11-12T17:41:01.947Z,102444.63
2022-11-12T17:43:28.371Z,102460.81
2022-11-12T17:45:54.917Z,102476.22
2022-11-12T17:48:21.123Z,102466.50
2022-11-12T17:50:47.325Z,102484.00
2022-11-12T17:53:13.548Z,102496.00
2022-11-12T17:55:39.828Z,102476.72
2022-11-12T17:58:06.052Z,102464.38
2022-11-12T18:00:32.249Z,102474.88
2022-11-12T18:02:58.453Z,102423.78
2022-11-12T18:05:24.874Z,102444.53
2022-11-12T18:07:51.080Z,102495.44
2022-11-12T18:10:19.711Z,102503.84
2022-11-12T18:12:46.088Z,102508.38
2022-11-12T18:15:12.288Z,102523.94
2022-11-12T18:17:38.617Z,102539.34
2022-11-12T18:20:05.383Z,102539.50
2022-11-12T18:22:31.580Z,102538.88
2022-11-12T18:24:57.788Z,102524.59
2022-11-12T18:27:24.000Z,102521.53
2022-11-12T18:29:50.217Z,102520.72
2022-11-12T18:32:16.415Z,102512.28
2022-11-12T18:34:42.626Z,102499.31
2022-11-12T18:37:08.829Z,102496.41
2022-11-12T18:39:35.039Z,102500.44
2022-11-12T18:42:01.281Z,102506.28
2022-11-12T18:44:30.043Z,102484.72
2022-11-12T18:46:56.298Z,102467.53
2022-11-12T18:49:22.500Z,102442.25
2022-11-12T18:51:48.791Z,102426.72
2022-11-12T18:54:14.996Z,102424.91
2022-11-12T18:56:41.201Z,102401.44
2022-11-12T18:59:07.407Z,102399.00
2022-11-12T19:01:33.663Z,102395.94
2022-11-12T19:03:59.907Z,102387.34
2022-11-12T19:06:26.112Z,102381.03
2022-11-12T19:08:58.977Z,102382.97
2022-11-12T19:11:25.172Z,102388.28
2022-11-12T19:13:54.472Z,102402.25
2022-11-12T19:16:21.038Z,102381.53
2022-11-12T19:18:47.262Z,102367.56
2022-11-12T19:21:14.234Z,102374.88
2022-11-12T19:23:40.441Z,102359.78
2022-11-12T19:26:07.246Z,102356.06
2022-11-12T19:28:36.175Z,102367.59
2022-11-12T19:31:02.910Z,102361.94
2022-11-12T19:33:29.132Z,102361.75
2022-11-12T19:35:55.345Z,102357.06
2022-11-12T19:38:21.557Z,102377.47
2022-11-12T19:40:47.770Z,102377.78
2022-11-12T19:43:13.968Z,102383.78
2022-11-12T19:45:40.171Z,102317.31
2022-11-12T19:48:06.391Z,102288.38
2022-11-12T19:50:32.595Z,102351.09
2022-11-12T19:52:58.799Z,102393.03
2022-11-12T19:55:25.013Z,102419.25
2022-11-12T19:57:51.207Z,102395.22
2022-11-12T20:00:17.481Z,102406.41
2022-11-12T20:02:43.676Z,102422.63
2022-11-12T20:05:09.893Z,102413.91
2022-11-12T20:07:36.092Z,102402.22
2022-11-12T20:10:02.296Z,102409.81
2022-11-12T20:12:28.502Z,102419.34
2022-11-12T20:14:54.704Z,102422.28
2022-11-12T20:17:20.903Z,102401.06
2022-11-12T20:19:47.124Z,102383.09
2022-11-12T20:22:13.327Z,102399.28
2022-11-12T20:24:39.544Z,102401.56
2022-11-12T20:27:05.752Z,102394.25
2022-11-12T20:29:31.967Z,102398.63
2022-11-12T20:31:58.169Z,102398.63
2022-11-12T20:34:24.386Z,102418.38
2022-11-12T20:36:50.599Z,102393.63
2022-11-12T20:39:16.819Z,102393.16
2022-11-12T20:41:43.026Z,102307.31
2022-11-12T20:44:09.239Z,102297.59
2022-11-12T20:46:35.436Z,102367.25
2022-11-12T20:49:01.641Z,102412.44
2022-11-12T20:51:27.856Z,102438.09
2022-11-12T20:53:58.787Z,102408.75
2022-11-12T20:56:26.431Z,102395.97
2022-11-12T20:58:52.641Z,102409.88
2022-11-12T21:01:19.808Z,102402.25
2022-11-12T21:03:46.087Z,102389.84
2022-11-12T21:06:13.087Z,102374.41
2022-11-12T21:08:39.288Z,102380.91
2022-11-12T21:11:06.170Z,102394.69
2022-11-12T21:13:33.084Z,102391.44
2022-11-12T21:18:47.767Z,102376.59
2022-11-12T21:21:14.693Z,102372.22
2022-11-12T21:23:41.536Z,102353.38
2022-11-12T21:26:09.662Z,102363.94
2022-11-12T21:28:35.904Z,102371.03
2022-11-12T21:31:03.081Z,102382.84
2022-11-12T21:33:29.287Z,102381.00
2022-11-12T21:35:55.506Z,102399.09
2022-11-12T21:38:22.623Z,102405.44
2022-11-12T21:40:48.837Z,102399.53
2022-11-12T21:43:15.047Z,102411.56
2022-11-12T21:45:45.264Z,102424.56
2022-11-12T21:48:11.536Z,102428.66
2022-11-12T21:50:37.765Z,102414.91
2022-11-12T21:53:03.973Z,102409.03
2022-11-12T21:55:30.214Z,102406.91
2022-11-12T21:57:57.072Z,102410.38
2022-11-12T22:00:41.480Z,102406.88
2022-11-12T22:03:08.428Z,102417.00
2022-11-12T22:05:35.701Z,102387.66
2022-11-12T22:08:02.898Z,102391.75
2022-11-12T22:10:29.114Z,102376.63
2022-11-12T22:13:24.812Z,102392.78
2022-11-12T22:15:50.373Z,102418.31
2022-11-12T22:18:16.570Z,102422.84
2022-11-12T22:20:42.793Z,102408.06
2022-11-12T22:23:09.003Z,102410.50
2022-11-12T22:25:35.222Z,102427.34
2022-11-12T22:28:01.419Z,102434.41
2022-11-12T22:30:27.686Z,102461.38
2022-11-12T22:32:53.919Z,102460.94
2022-11-12T22:35:21.095Z,102462.25
2022-11-12T22:37:47.345Z,102487.28
2022-11-12T22:40:13.857Z,102483.97
2022-11-12T22:42:40.192Z,102492.50
2022-11-12T22:45:06.742Z,102483.44
2022-11-12T22:47:32.983Z,102477.09
2022-11-12T22:49:59.197Z,102492.06
2022-11-12T22:52:25.400Z,102483.28
2022-11-12T22:54:51.620Z,102470.00
2022-11-12T22:57:17.843Z,102482.41
2022-11-12T22:59:44.055Z,102490.84
2022-11-12T23:02:10.264Z,102499.78
2022-11-12T23:04:36.914Z,102504.56
2022-11-12T23:07:03.214Z,102516.44
2022-11-12T23:09:29.496Z,102511.53
2022-11-12T23:11:55.713Z,102511.25
2022-11-12T23:14:21.975Z,102497.47
2022-11-12T23:16:48.196Z,102490.97
2022-11-12T23:19:14.405Z,102489.47
2022-11-12T23:21:40.620Z,102489.25
2022-11-12T23:24:06.891Z,102478.34
2022-11-12T23:26:33.108Z,102456.63
2022-11-12T23:28:59.628Z,102445.81
2022-11-12T23:31:26.862Z,102465.06
2022-11-12T23:33:53.550Z,102480.63
2022-11-12T23:36:19.821Z,102479.38
2022-11-12T23:38:46.036Z,102481.63
2022-11-12T23:41:12.615Z,102473.78
2022-11-12T23:43:38.813Z,102471.78
2022-11-12T23:46:05.067Z,102461.94
2022-11-12T23:48:31.370Z,102433.13
2022-11-12T23:51:04.811Z,102414.66
2022-11-12T23:53:32.244Z,102405.28
2022-11-12T23:55:58.608Z,102404.34
2022-11-12T23:58:25.045Z,102404.34
